METAR Data
IDs: Format: Raw Decoded Include TAF

Data at: 2151 UTC 08 Aug 2020

KA39 082135Z AUTO 00000KT 10SM BKN100 BKN120 42/05 A2989 RMK AO2
KA39 082115Z AUTO 26007KT 10SM BKN100 OVC120 42/05 A2990 RMK AO2
KA39 082055Z AUTO 24005KT 10SM BKN090 BKN110 41/05 A2991 RMK AO2
KA39 082035Z AUTO 15003KT 10SM SCT100 SCT120 41/05 A2991 RMK AO2
KA39 082015Z AUTO 26003KT 10SM BKN100 BKN120 41/01 A2992 RMK AO2
KA39 081955Z AUTO 30003KT 10SM SCT100 BKN120 41/02 A2993 RMK AO2
KA39 081935Z AUTO 28003KT 10SM BKN100 BKN120 40/03 A2994 RMK AO2
KA39 081915Z AUTO 00000KT 10SM BKN100 BKN120 40/05 A2994 RMK AO2
KA39 081855Z AUTO 29004KT 10SM BKN100 BKN120 39/06 A2994 RMK AO2
KA39 081835Z AUTO 23004KT 10SM BKN100 BKN120 39/08 A2995 RMK AO2
KA39 081815Z AUTO 00000KT 10SM SCT080 BKN100 OVC120 38/10 A2995 RMK AO2
KA39 081755Z AUTO 24006KT 10SM SCT070 BKN100 OVC120 39/10 A2996 RMK AO2
KA39 081735Z AUTO 32003KT 10SM SCT070 BKN100 OVC120 38/10 A2996 RMK AO2
KA39 081715Z AUTO 34004KT 10SM BKN100 OVC120 37/10 A2997 RMK AO2
KA39 081655Z AUTO 00000KT 10SM BKN100 OVC120 36/10 A2997 RMK AO2
KA39 081635Z AUTO 20004KT 10SM BKN100 OVC120 36/11 A2997 RMK AO2
KA39 081615Z AUTO 22003KT 10SM BKN100 OVC120 35/11 A2997 RMK AO2
KA39 081555Z AUTO 18005KT 10SM BKN110 35/12 A2998 RMK AO2
KA39 081535Z AUTO 17006KT 10SM SCT120 34/12 A2998 RMK AO2
KA39 081515Z AUTO 17006KT 10SM SCT120 33/12 A2998 RMK AO2
KA39 081455Z AUTO 15006KT 10SM BKN110 32/11 A2998 RMK AO2
KA39 081435Z AUTO 14006KT 10SM SCT110 32/10 A2997 RMK AO2
KA39 081415Z AUTO 13005KT 10SM CLR 30/10 A2997 RMK AO2
KA39 081355Z AUTO 14007KT 10SM CLR 29/10 A2997 RMK AO2
KA39 081335Z AUTO 15006KT 10SM CLR 28/09 A2996 RMK AO2
KA39 081315Z AUTO 14006KT 10SM CLR 27/09 A2996 RMK AO2
KA39 081255Z AUTO 15006KT 10SM CLR 27/09 A2995 RMK AO2
KA39 081235Z AUTO 14006KT 10SM CLR 26/09 A2994 RMK AO2
KA39 081215Z AUTO 13005KT 10SM CLR 26/09 A2994 RMK AO2
KA39 081155Z AUTO 12005KT 10SM CLR 26/09 A2993 RMK AO2
KA39 081135Z AUTO 14006KT 10SM CLR 27/09 A2993 RMK AO2
KA39 081115Z AUTO 14008KT 10SM CLR 27/10 A2993 RMK AO2
KA39 081055Z AUTO 18005KT 10SM CLR 28/12 A2992 RMK AO2
KA39 081035Z AUTO 00000KT 10SM CLR 27/10 A2992 RMK AO2
KA39 081015Z AUTO 10004KT 10SM CLR 28/10 A2992 RMK AO2
KA39 080955Z AUTO 09004KT 10SM SCT120 29/11 A2991 RMK AO2
KA39 080935Z AUTO 09005KT 10SM SCT120 28/10 A2991 RMK AO2
KA39 080915Z AUTO 17004KT 10SM SCT120 30/11 A2991 RMK AO2
KA39 080855Z AUTO 13006KT 10SM SCT110 29/11 A2991 RMK AO2
KA39 080835Z AUTO 00000KT 10SM SCT110 30/12 A2991 RMK AO2
KA39 080815Z AUTO 26003KT 10SM SCT120 31/12 A2991 RMK AO2
KA39 080755Z AUTO 00000KT 10SM SCT110 32/12 A2991 RMK AO2
KA39 080735Z AUTO 00000KT 10SM SCT110 31/11 A2991 RMK AO2
KA39 080715Z AUTO 00000KT 10SM SCT120 32/12 A2991 RMK AO2
KA39 080655Z AUTO 28004KT 10SM SCT100 SCT120 32/10 A2991 RMK AO2
KA39 080635Z AUTO 29005KT 10SM BKN100 BKN120 33/10 A2991 RMK AO2
KA39 080615Z AUTO 28004KT 10SM BKN100 BKN120 34/09 A2991 RMK AO2
KA39 080555Z AUTO 00000KT 10SM BKN090 BKN120 34/10 A2990 RMK AO2
KA39 080535Z AUTO 30003KT 10SM BKN100 BKN120 34/10 A2990 RMK AO2
KA39 080515Z AUTO 28004KT 10SM BKN090 OVC120 35/10 A2990 RMK AO2
KA39 080455Z AUTO 29007KT 10SM BKN090 OVC110 35/10 A2989 RMK AO2
KA39 080435Z AUTO 29007KT 10SM SCT075 BKN100 BKN120 35/10 A2989 RMK AO2
KA39 080415Z AUTO 30005KT 10SM SCT090 BKN120 35/10 A2988 RMK AO2
KA39 080355Z AUTO 31004KT 10SM BKN095 BKN120 36/09 A2987 RMK AO2
KA39 080335Z AUTO 34004KT 10SM BKN085 OVC110 37/09 A2986 RMK AO2
KA39 080315Z AUTO 35006KT 10SM SCT080 BKN110 37/09 A2986 RMK AO2
KA39 080255Z AUTO 35007KT 10SM SCT095 SCT120 37/09 A2985 RMK AO2
KA39 080235Z AUTO 35006KT 10SM CLR 38/09 A2984 RMK AO2
KA39 080215Z AUTO 36006KT 10SM CLR 39/09 A2984 RMK AO2
KA39 080155Z AUTO 01006KT 10SM CLR 40/09 A2984 RMK AO2
KA39 080135Z AUTO 01007KT 10SM CLR 40/09 A2983 RMK AO2
KA39 080115Z AUTO 01005KT 10SM CLR 40/09 A2983 RMK AO2
KA39 080055Z AUTO 20005KT 10SM SCT060 SCT110 41/09 A2983 RMK AO2
KA39 080035Z AUTO 00000KT 10SM SCT060 SCT070 41/09 A2983 RMK AO2
KA39 080015Z AUTO 20004KT 10SM SCT060 SCT070 41/09 A2983 RMK AO2
KA39 072355Z AUTO 21003KT 10SM SCT060 SCT080 41/09 A2984 RMK AO2
KA39 072335Z AUTO 30005KT 10SM CLR 41/10 A2984 RMK AO2
KA39 072315Z AUTO 30008KT 10SM SCT060 SCT120 42/10 A2984 RMK AO2
KA39 072255Z AUTO 31003KT 10SM SCT070 SCT075 41/10 A2985 RMK AO2
KA39 072235Z AUTO 28006KT 10SM SCT055 SCT065 SCT075 41/10 A2985 RMK AO2
KA39 072215Z AUTO 12006KT 10SM SCT055 SCT065 SCT120 41/09 A2986 RMK AO2
KA39 072155Z AUTO 27008KT 10SM SCT055 SCT100 41/10 A2987 RMK AO2
KA39 072135Z AUTO 28005KT 10SM SCT100 41/09 A2988 RMK AO2
KA39 072115Z AUTO 00000KT 10SM BKN100 BKN120 40/10 A2989 RMK AO2
KA39 072055Z AUTO 33009KT 10SM BKN100 OVC120 41/10 A2989 RMK AO2
KA39 072035Z AUTO 21006KT 10SM BKN110 40/10 A2990 RMK AO2
KA39 072015Z AUTO 35004KT 10SM SCT100 BKN120 39/10 A2990 RMK AO2
KA39 071955Z AUTO 11003G14KT 10SM BKN100 BKN120 39/09 A2991 RMK AO2
KA39 071935Z AUTO 32004KT 10SM BKN110 39/09 A2992 RMK AO2
KA39 071915Z AUTO 36006KT 10SM BKN100 BKN120 38/09 A2992 RMK AO2
KA39 071855Z AUTO 31007KT 10SM SCT070 BKN090 OVC120 38/09 A2993 RMK AO2
KA39 071835Z AUTO 35003KT 10SM SCT070 BKN100 OVC120 38/10 A2993 RMK AO2
KA39 071815Z AUTO 05005KT 10SM BKN090 OVC110 37/10 A2994 RMK AO2
KA39 071755Z AUTO 34004KT 10SM SCT070 BKN090 OVC120 36/09 A2994 RMK AO2
KA39 071735Z AUTO 00000KT 10SM BKN090 OVC120 36/10 A2995 RMK AO2
KA39 071715Z AUTO 36006KT 10SM SCT080 BKN100 OVC120 36/09 A2995 RMK AO2
KA39 071655Z AUTO 01006KT 10SM BKN100 BKN120 36/09 A2995 RMK AO2
KA39 071635Z AUTO 03005KT 10SM BKN100 OVC120 35/08 A2995 RMK AO2
KA39 071615Z AUTO 00000KT 10SM BKN110 35/09 A2995 RMK AO2
KA39 071555Z AUTO 01003KT 10SM SCT120 34/09 A2994 RMK AO2
KA39 071535Z AUTO 00000KT 10SM CLR 33/09 A2994 RMK AO2
KA39 071515Z AUTO 01005KT 10SM CLR 33/09 A2994 RMK AO2
KA39 071455Z AUTO 00000KT 10SM CLR 32/08 A2993 RMK AO2
KA39 071435Z AUTO 00000KT 10SM CLR 32/08 A2993 RMK AO2
KA39 071415Z AUTO 00000KT 10SM CLR 31/08 A2992 RMK AO2
KA39 071355Z AUTO 11004KT 10SM CLR 29/08 A2991 RMK AO2
KA39 071335Z AUTO 12003KT 10SM CLR 28/08 A2990 RMK AO2
KA39 071315Z AUTO 12006KT 10SM CLR 26/07 A2990 RMK AO2
KA39 071255Z AUTO 15006KT 10SM CLR 26/07 A2989 RMK AO2
KA39 071235Z AUTO 16005KT 10SM CLR 26/08 A2989 RMK AO2
KA39 071215Z AUTO 12005KT 10SM CLR 26/08 A2988 RMK AO2
KA39 071155Z AUTO 12006KT 10SM CLR 26/08 A2988 RMK AO2
KA39 071135Z AUTO 15006KT 10SM CLR 27/09 A2987 RMK AO2
KA39 071115Z AUTO 15007KT 10SM CLR 28/09 A2987 RMK AO2
KA39 071055Z AUTO 15009KT 10SM CLR 28/10 A2986 RMK AO2
KA39 071035Z AUTO 15007KT 10SM CLR 28/09 A2986 RMK AO2
KA39 071015Z AUTO 11009KT 10SM CLR 27/08 A2985 RMK AO2
KA39 070955Z AUTO 14005KT 10SM CLR 28/08 A2985 RMK AO2